Time,TemperatureF,DewpointF,PressureIn,WindDirection,WindDirectionDegrees,WindSpeedMPH,WindSpeedGustMPH,Humidity,HourlyPrecipIn,Conditions,Clouds,dailyrainin,SoftwareType,DateUTC
2013-02-02 00:00:00,17.1,14.9,30.12,WNW,298,2.0,9.0,91,0.00,,OVC047,0.00,VWS V14.01,2013-02-02 06:00:00,
2013-02-02 00:05:00,17.2,15.0,30.12,WNW,298,1.0,2.0,91,0.00,,OVC047,0.00,VWS V14.01,2013-02-02 06:05:00,
2013-02-02 00:10:00,17.3,15.1,30.12,WNW,298,4.0,8.0,91,0.00,,OVC047,0.00,VWS V14.01,2013-02-02 06:10:00,
2013-02-02 00:15:00,17.4,15.2,30.11,WNW,298,3.0,7.0,91,0.00,,OVC047,0.00,VWS V14.01,2013-02-02 06:15:00,
2013-02-02 00:20:00,17.4,15.2,30.11,WNW,298,4.0,7.0,91,0.00,,OVC047,0.00,VWS V14.01,2013-02-02 06:20:00,
2013-02-02 00:25:00,17.5,15.3,30.11,WNW,298,5.0,6.0,91,0.00,,OVC047,0.00,VWS V14.01,2013-02-02 06:25:00,
2013-02-02 00:30:00,17.6,15.4,30.10,WNW,298,3.0,8.0,91,0.00,,OVC047,0.00,VWS V14.01,2013-02-02 06:30:00,
2013-02-02 00:35:00,17.7,15.5,30.10,WNW,298,5.0,5.0,91,0.00,,OVC047,0.00,VWS V14.01,2013-02-02 06:35:00,
2013-02-02 00:40:00,17.7,15.8,30.09,WNW,298,2.0,7.0,92,0.00,,OVC045,0.00,VWS V14.01,2013-02-02 06:40:00,
2013-02-02 00:45:00,17.8,15.6,30.09,WNW,298,4.0,5.0,91,0.00,,OVC045,0.00,VWS V14.01,2013-02-02 06:45:00,
2013-02-02 00:50:00,17.9,16.0,30.09,WNW,298,4.0,7.0,92,0.00,,OVC045,0.00,VWS V14.01,2013-02-02 06:50:00,
2013-02-02 00:55:00,18.1,16.2,30.09,WNW,298,2.0,6.0,92,0.00,,OVC045,0.00,VWS V14.01,2013-02-02 06:55:00,
2013-02-02 01:00:00,18.2,16.3,30.08,WNW,298,4.0,8.0,92,0.00,,OVC045,0.00,VWS V14.01,2013-02-02 07:00:00,
2013-02-02 01:05:00,18.3,16.4,30.08,WNW,298,1.0,7.0,92,0.00,,OVC043,0.00,VWS V14.01,2013-02-02 07:05:00,
2013-02-02 01:10:00,18.5,16.6,30.08,WNW,298,3.0,7.0,92,0.00,,OVC043,0.00,VWS V14.01,2013-02-02 07:10:00,
2013-02-02 01:15:00,18.6,16.7,30.08,WNW,298,2.0,6.0,92,0.00,,OVC043,0.00,VWS V14.01,2013-02-02 07:15:00,
2013-02-02 01:20:00,18.7,16.8,30.07,WNW,298,2.0,6.0,92,0.00,,OVC043,0.00,VWS V14.01,2013-02-02 07:20:00,
2013-02-02 01:25:00,18.9,17.0,30.07,WNW,298,4.0,6.0,92,0.00,,OVC041,0.00,VWS V14.01,2013-02-02 07:25:00,
2013-02-02 01:30:00,19.0,17.3,30.07,WNW,298,1.0,6.0,93,0.00,,OVC041,0.00,VWS V14.01,2013-02-02 07:30:00,
2013-02-02 01:35:00,19.1,17.4,30.07,WNW,298,2.0,7.0,93,0.00,,OVC041,0.00,VWS V14.01,2013-02-02 07:35:00,
2013-02-02 01:40:00,19.3,17.6,30.07,WNW,298,5.0,9.0,93,0.00,,OVC041,0.00,VWS V14.01,2013-02-02 07:40:00,
2013-02-02 01:45:00,19.5,17.8,30.07,WNW,298,3.0,6.0,93,0.00,,OVC041,0.00,VWS V14.01,2013-02-02 07:45:00,
2013-02-02 01:50:00,19.7,18.0,30.07,WNW,298,3.0,7.0,93,0.00,,OVC041,0.00,VWS V14.01,2013-02-02 07:50:00,
2013-02-02 01:55:00,19.8,18.1,30.06,WNW,298,6.0,9.0,93,0.00,,OVC041,0.00,VWS V14.01,2013-02-02 07:55:00,
2013-02-02 02:00:00,20.0,18.3,30.06,WNW,298,6.0,9.0,93,0.00,,OVC041,0.00,VWS V14.01,2013-02-02 08:00:00,
2013-02-02 02:05:00,20.2,18.5,30.06,WNW,298,3.0,5.0,93,0.00,,OVC048,0.00,VWS V14.01,2013-02-02 08:05:00,
2013-02-02 02:10:00,20.3,18.6,30.06,WNW,298,3.0,5.0,93,0.00,,OVC048,0.00,VWS V14.01,2013-02-02 08:10:00,
2013-02-02 02:15:00,20.4,18.7,30.06,WNW,298,2.0,4.0,93,0.00,,OVC048,0.00,VWS V14.01,2013-02-02 08:15:00,
2013-02-02 02:20:00,20.6,19.1,30.05,WNW,298,6.0,7.0,94,0.00,,OVC060,0.00,VWS V14.01,2013-02-02 08:20:00,
2013-02-02 02:25:00,20.7,19.2,30.05,WNW,298,8.0,8.0,94,0.00,,OVC060,0.00,VWS V14.01,2013-02-02 08:25:00,
2013-02-02 02:30:00,20.8,19.4,30.05,WNW,298,4.0,4.0,94,0.00,,OVC060,0.00,VWS V14.01,2013-02-02 08:30:00,
2013-02-02 02:35:00,20.9,19.5,30.05,WNW,298,6.0,6.0,94,0.00,,OVC060,0.00,VWS V14.01,2013-02-02 08:35:00,
2013-02-02 02:40:00,21.1,19.6,30.04,WNW,298,7.0,7.0,94,0.00,,OVC050,0.00,VWS V14.01,2013-02-02 08:40:00,
2013-02-02 02:45:00,21.2,19.8,30.04,WNW,298,5.0,8.0,94,0.00,,OVC050,0.00,VWS V14.01,2013-02-02 08:45:00,
2013-02-02 02:50:00,21.4,19.9,30.03,WNW,298,6.0,8.0,94,0.00,,OVC050,0.00,VWS V14.01,2013-02-02 08:50:00,
2013-02-02 02:55:00,21.6,20.1,30.03,WNW,298,5.0,8.0,94,0.00,,OVC050,0.00,VWS V14.01,2013-02-02 08:55:00,
2013-02-02 03:00:00,21.7,20.2,30.03,WNW,298,6.0,7.0,94,0.00,,OVC050,0.00,VWS V14.01,2013-02-02 09:00:00,
2013-02-02 03:05:00,22.0,20.5,30.03,WNW,298,8.0,8.0,94,0.00,,OVC050,0.00,VWS V14.01,2013-02-02 09:05:00,
2013-02-02 03:10:00,22.2,20.7,30.03,WNW,298,9.0,9.0,94,0.00,,OVC050,0.00,VWS V14.01,2013-02-02 09:10:00,
2013-02-02 03:15:00,22.4,20.9,30.02,WNW,298,9.0,9.0,94,0.00,,OVC050,0.00,VWS V14.01,2013-02-02 09:15:00,
2013-02-02 03:20:00,22.6,20.9,30.02,WNW,298,7.0,10.0,93,0.00,,OVC050,0.00,VWS V14.01,2013-02-02 09:20:00,
2013-02-02 03:25:00,22.7,21.0,30.02,WNW,298,10.0,10.0,93,0.00,,OVC050,0.00,VWS V14.01,2013-02-02 09:25:00,
2013-02-02 03:30:00,22.8,21.1,30.02,WNW,298,5.0,7.0,93,0.00,,OVC050,0.00,VWS V14.01,2013-02-02 09:30:00,
2013-02-02 03:35:00,22.9,21.2,30.01,WNW,298,9.0,10.0,93,0.00,,OVC050,0.00,VWS V14.01,2013-02-02 09:35:00,
2013-02-02 03:40:00,22.9,21.2,30.01,WNW,298,7.0,10.0,93,0.00,,OVC050,0.00,VWS V14.01,2013-02-02 09:40:00,
2013-02-02 03:45:00,22.9,21.2,30.01,WNW,298,8.0,8.0,93,0.00,,OVC050,0.00,VWS V14.01,2013-02-02 09:45:00,
2013-02-02 03:50:00,23.0,21.3,30.01,WNW,298,8.0,9.0,93,0.00,,OVC050,0.00,VWS V14.01,2013-02-02 09:50:00,
2013-02-02 03:55:00,23.0,21.3,30.00,WNW,298,5.0,8.0,93,0.00,,OVC050,0.00,VWS V14.01,2013-02-02 09:55:00,
2013-02-02 04:00:00,23.1,21.4,30.00,WNW,298,7.0,8.0,93,0.00,,OVC032,0.00,VWS V14.01,2013-02-02 10:00:00,
2013-02-02 04:05:00,23.1,21.4,30.00,WNW,298,3.0,4.0,93,0.00,,OVC032,0.00,VWS V14.01,2013-02-02 10:05:00,
2013-02-02 04:10:00,23.1,21.4,30.00,WNW,298,7.0,12.0,93,0.00,,OVC032,0.00,VWS V14.01,2013-02-02 10:10:00,
2013-02-02 04:15:00,23.0,21.3,30.00,WNW,298,8.0,13.0,93,0.00,,OVC032,0.00,VWS V14.01,2013-02-02 10:15:00,
2013-02-02 04:20:00,23.0,21.3,30.00,WNW,298,7.0,10.0,93,0.00,,OVC030,0.00,VWS V14.01,2013-02-02 10:20:00,
2013-02-02 04:25:00,23.0,21.5,29.99,WNW,298,8.0,10.0,94,0.00,,OVC030,0.00,VWS V14.01,2013-02-02 10:25:00,
2013-02-02 04:30:00,23.1,21.6,29.99,WNW,298,4.0,9.0,94,0.00,,OVC030,0.00,VWS V14.01,2013-02-02 10:30:00,
2013-02-02 04:35:00,23.1,21.6,29.99,WNW,298,4.0,8.0,94,0.00,,OVC030,0.00,VWS V14.01,2013-02-02 10:35:00,
2013-02-02 04:40:00,23.1,21.6,29.99,WNW,298,3.0,9.0,94,0.00,,OVC030,0.00,VWS V14.01,2013-02-02 10:40:00,
2013-02-02 04:45:00,23.1,21.6,29.99,WNW,298,5.0,8.0,94,0.00,,OVC030,0.00,VWS V14.01,2013-02-02 10:45:00,
2013-02-02 04:50:00,23.1,21.6,29.99,WNW,298,4.0,8.0,94,0.00,,OVC030,0.00,VWS V14.01,2013-02-02 10:50:00,
2013-02-02 04:55:00,23.2,21.7,29.99,WNW,298,4.0,7.0,94,0.00,,OVC030,0.00,VWS V14.01,2013-02-02 10:55:00,
2013-02-02 05:00:00,23.2,21.7,29.99,WNW,298,9.0,9.0,94,0.00,,OVC030,0.00,VWS V14.01,2013-02-02 11:00:00,
2013-02-02 05:05:00,23.3,22.1,29.99,WNW,298,5.0,7.0,95,0.00,,OVC030,0.00,VWS V14.01,2013-02-02 11:05:00,
2013-02-02 05:10:00,23.3,22.1,29.99,WNW,298,7.0,7.0,95,0.00,,OVC030,0.00,VWS V14.01,2013-02-02 11:10:00,
2013-02-02 05:15:00,23.4,22.2,29.99,WNW,298,4.0,8.0,95,0.00,,OVC030,0.00,VWS V14.01,2013-02-02 11:15:00,
2013-02-02 05:20:00,23.4,22.2,29.99,WNW,298,6.0,7.0,95,0.00,,OVC030,0.00,VWS V14.01,2013-02-02 11:20:00,
2013-02-02 05:25:00,23.4,22.2,29.99,WNW,298,5.0,7.0,95,0.00,,OVC030,0.00,VWS V14.01,2013-02-02 11:25:00,
2013-02-02 05:30:00,23.5,22.3,29.99,WNW,298,7.0,8.0,95,0.00,,OVC030,0.00,VWS V14.01,2013-02-02 11:30:00,
2013-02-02 05:35:00,23.5,22.3,29.99,WNW,298,4.0,8.0,95,0.00,,OVC030,0.00,VWS V14.01,2013-02-02 11:35:00,
2013-02-02 05:40:00,23.5,22.3,29.99,WNW,298,5.0,8.0,95,0.00,,OVC030,0.00,VWS V14.01,2013-02-02 11:40:00,
2013-02-02 05:45:00,23.5,22.3,29.99,WNW,298,6.0,7.0,95,0.00,,OVC030,0.00,VWS V14.01,2013-02-02 11:45:00,
2013-02-02 05:50:00,23.5,22.3,29.99,WNW,298,3.0,7.0,95,0.00,,OVC030,0.00,VWS V14.01,2013-02-02 11:50:00,
2013-02-02 05:55:00,23.6,22.4,29.99,WNW,298,3.0,7.0,95,0.00,,OVC030,0.00,VWS V14.01,2013-02-02 11:55:00,
2013-02-02 06:00:00,23.6,22.4,29.98,WNW,298,5.0,5.0,95,0.00,,OVC030,0.00,VWS V14.01,2013-02-02 12:00:00,
2013-02-02 06:05:00,23.6,22.4,29.99,WNW,298,4.0,5.0,95,0.00,,OVC028,0.00,VWS V14.01,2013-02-02 12:05:00,
2013-02-02 06:10:00,23.6,22.4,29.99,WNW,298,5.0,7.0,95,0.00,,OVC028,0.00,VWS V14.01,2013-02-02 12:10:00,
2013-02-02 06:15:00,23.6,22.4,29.99,WNW,298,3.0,5.0,95,0.00,,OVC028,0.00,VWS V14.01,2013-02-02 12:15:00,
2013-02-02 06:20:00,23.6,22.4,29.99,WNW,298,1.0,6.0,95,0.00,,OVC028,0.00,VWS V14.01,2013-02-02 12:20:00,
2013-02-02 06:25:00,23.6,22.4,29.99,WNW,298,2.0,5.0,95,0.00,,OVC028,0.00,VWS V14.01,2013-02-02 12:25:00,
2013-02-02 06:30:00,23.6,22.4,29.99,WNW,298,1.0,5.0,95,0.00,,OVC028,0.00,VWS V14.01,2013-02-02 12:30:00,
2013-02-02 06:35:00,23.6,22.4,29.99,WNW,298,3.0,5.0,95,0.00,,OVC028,0.00,VWS V14.01,2013-02-02 12:35:00,
2013-02-02 06:40:00,23.7,22.5,29.99,WNW,298,2.0,4.0,95,0.00,,OVC028,0.00,VWS V14.01,2013-02-02 12:40:00,
2013-02-02 06:45:00,23.7,22.5,29.99,WNW,298,2.0,5.0,95,0.00,,OVC026,0.00,VWS V14.01,2013-02-02 12:45:00,
2013-02-02 06:50:00,23.7,22.5,29.99,WNW,298,3.0,5.0,95,0.00,,OVC026,0.00,VWS V14.01,2013-02-02 12:50:00,
2013-02-02 06:55:00,23.8,22.6,29.99,WNW,298,2.0,4.0,95,0.00,,OVC026,0.00,VWS V14.01,2013-02-02 12:55:00,
2013-02-02 07:00:00,23.8,22.6,29.99,WNW,298,4.0,6.0,95,0.00,,OVC026,0.00,VWS V14.01,2013-02-02 13:00:00,
2013-02-02 07:05:00,23.8,22.6,29.99,WNW,298,0.0,6.0,95,0.00,,OVC026,0.00,VWS V14.01,2013-02-02 13:05:00,
2013-02-02 07:10:00,23.8,22.6,29.99,WNW,298,3.0,4.0,95,0.00,,OVC026,0.00,VWS V14.01,2013-02-02 13:10:00,
2013-02-02 07:15:00,23.8,22.6,29.99,WNW,298,0.0,4.0,95,0.00,,OVC026,0.00,VWS V14.01,2013-02-02 13:15:00,
2013-02-02 07:20:00,23.8,22.6,30.00,WNW,298,0.0,3.0,95,0.00,,OVC026,0.00,VWS V14.01,2013-02-02 13:20:00,
2013-02-02 07:24:00,23.9,22.7,29.99,WNW,298,0.0,4.0,95,0.00,,OVC026,0.00,VWS V14.01,2013-02-02 13:24:00,
2013-02-02 07:29:00,23.9,22.7,30.00,WNW,298,3.0,4.0,95,0.00,,OVC026,0.00,VWS V14.01,2013-02-02 13:29:00,
2013-02-02 07:34:00,23.9,22.7,30.00,WNW,298,0.0,3.0,95,0.00,,OVC026,0.00,VWS V14.01,2013-02-02 13:34:00,
2013-02-02 07:39:00,23.9,22.7,30.00,WNW,298,0.0,2.0,95,0.00,,OVC026,0.00,VWS V14.01,2013-02-02 13:39:00,
2013-02-02 07:44:00,23.9,22.7,30.00,WNW,298,0.0,3.0,95,0.00,,OVC024,0.00,VWS V14.01,2013-02-02 13:44:00,
2013-02-02 07:49:00,23.9,22.7,30.00,WNW,298,1.0,1.0,95,0.00,,OVC024,0.00,VWS V14.01,2013-02-02 13:49:00,
2013-02-02 07:54:00,23.9,22.7,30.00,WNW,298,0.0,2.0,95,0.00,,OVC024,0.00,VWS V14.01,2013-02-02 13:54:00,
2013-02-02 07:59:00,24.0,22.8,30.00,WNW,298,2.0,3.0,95,0.00,,OVC024,0.00,VWS V14.01,2013-02-02 13:59:00,
2013-02-02 08:04:00,24.1,22.9,30.00,WNW,298,0.0,4.0,95,0.00,,OVC020,0.00,VWS V14.01,2013-02-02 14:04:00,
2013-02-02 08:09:00,24.2,23.0,30.00,WNW,298,1.0,7.0,95,0.00,,OVC020,0.00,VWS V14.01,2013-02-02 14:09:00,
2013-02-02 08:14:00,24.1,22.9,30.00,WNW,298,0.0,5.0,95,0.00,,OVC020,0.00,VWS V14.01,2013-02-02 14:14:00,
2013-02-02 08:19:00,23.6,21.9,30.01,WNW,298,2.0,6.0,93,0.00,,OVC020,0.00,VWS V14.01,2013-02-02 14:19:00,
2013-02-02 08:24:00,23.1,21.1,30.01,WNW,298,0.0,7.0,92,0.00,,OVC020,0.00,VWS V14.01,2013-02-02 14:24:00,
2013-02-02 08:29:00,22.8,20.6,30.02,WNW,298,2.0,8.0,91,0.00,,OVC020,0.00,VWS V14.01,2013-02-02 14:29:00,
2013-02-02 08:34:00,22.5,20.0,30.02,WNW,298,2.0,5.0,90,0.00,,OVC020,0.00,VWS V14.01,2013-02-02 14:34:00,
2013-02-02 08:39:00,21.9,19.2,30.02,WNW,298,1.0,6.0,89,0.00,,OVC020,0.00,VWS V14.01,2013-02-02 14:39:00,
2013-02-02 08:44:00,21.5,18.8,30.02,WNW,298,0.0,4.0,89,0.00,,OVC022,0.00,VWS V14.01,2013-02-02 14:44:00,
2013-02-02 08:49:00,21.2,18.5,30.02,WNW,298,0.0,8.0,89,0.00,,OVC022,0.00,VWS V14.01,2013-02-02 14:49:00,
2013-02-02 08:54:00,20.8,18.1,30.02,WNW,298,2.0,7.0,89,0.00,,OVC022,0.00,VWS V14.01,2013-02-02 14:54:00,
2013-02-02 08:59:00,20.3,17.3,30.02,WNW,298,1.0,9.0,88,0.00,,OVC022,0.00,VWS V14.01,2013-02-02 14:59:00,
2013-02-02 09:04:00,19.8,16.8,30.03,WNW,298,5.0,9.0,88,0.00,,OVC018,0.00,VWS V14.01,2013-02-02 15:04:00,
2013-02-02 09:09:00,19.4,16.4,30.03,WNW,298,1.0,6.0,88,0.00,,OVC018,0.00,VWS V14.01,2013-02-02 15:09:00,
2013-02-02 09:14:00,19.2,16.2,30.03,WNW,298,0.0,4.0,88,0.00,,OVC018,0.00,VWS V14.01,2013-02-02 15:14:00,
2013-02-02 09:19:00,19.0,16.0,30.03,WNW,298,0.0,5.0,88,0.00,,OVC018,0.00,VWS V14.01,2013-02-02 15:19:00,
2013-02-02 09:24:00,18.9,15.9,30.03,WNW,298,4.0,6.0,88,0.00,,OVC018,0.00,VWS V14.01,2013-02-02 15:24:00,
2013-02-02 09:29:00,18.8,15.8,30.04,WNW,298,2.0,5.0,88,0.00,,OVC018,0.00,VWS V14.01,2013-02-02 15:29:00,
2013-02-02 09:34:00,18.7,15.7,30.04,WNW,298,4.0,6.0,88,0.00,,OVC018,0.00,VWS V14.01,2013-02-02 15:34:00,
2013-02-02 09:39:00,17.9,14.7,30.04,WNW,298,3.0,8.0,87,0.00,,OVC018,0.00,VWS V14.01,2013-02-02 15:39:00,
2013-02-02 09:44:00,16.9,13.7,30.05,WNW,298,9.0,11.0,87,0.00,,OVC018,0.00,VWS V14.01,2013-02-02 15:44:00,
2013-02-02 09:49:00,16.4,13.2,30.05,WNW,298,2.0,12.0,87,0.00,,OVC018,0.00,VWS V14.01,2013-02-02 15:49:00,
2013-02-02 09:54:00,15.8,12.4,30.05,WNW,298,4.0,11.0,86,0.00,,OVC018,0.00,VWS V14.01,2013-02-02 15:54:00,
2013-02-02 09:59:00,15.5,11.8,30.05,WNW,298,7.0,9.0,85,0.00,,OVC018,0.00,VWS V14.01,2013-02-02 15:59:00,
2013-02-02 10:04:00,15.2,11.5,30.05,WNW,298,8.0,11.0,85,0.00,,OVC017,0.00,VWS V14.01,2013-02-02 16:04:00,
2013-02-02 10:09:00,15.0,11.3,30.06,WNW,298,7.0,13.0,85,0.00,,OVC017,0.00,VWS V14.01,2013-02-02 16:09:00,
2013-02-02 10:14:00,14.9,11.2,30.06,WNW,298,5.0,9.0,85,0.00,,OVC017,0.00,VWS V14.01,2013-02-02 16:14:00,
2013-02-02 10:19:00,14.8,11.1,30.06,WNW,298,7.0,10.0,85,0.00,,OVC017,0.00,VWS V14.01,2013-02-02 16:19:00,
2013-02-02 10:24:00,14.6,10.9,30.07,WNW,298,5.0,14.0,85,0.00,,OVC018,0.00,VWS V14.01,2013-02-02 16:24:00,
2013-02-02 10:29:00,14.3,10.4,30.07,WNW,298,4.0,11.0,84,0.00,,OVC018,0.00,VWS V14.01,2013-02-02 16:29:00,
2013-02-02 10:34:00,14.1,9.9,30.07,WNW,298,4.0,11.0,83,0.00,,OVC018,0.00,VWS V14.01,2013-02-02 16:34:00,
2013-02-02 10:39:00,14.1,9.9,30.08,WNW,298,6.0,11.0,83,0.00,,OVC018,0.00,VWS V14.01,2013-02-02 16:39:00,
2013-02-02 10:44:00,14.1,9.9,30.08,WNW,298,4.0,10.0,83,0.00,,OVC020,0.00,VWS V14.01,2013-02-02 16:44:00,
2013-02-02 10:49:00,14.1,9.9,30.08,WNW,298,4.0,11.0,83,0.00,,OVC020,0.00,VWS V14.01,2013-02-02 16:49:00,
2013-02-02 10:54:00,14.2,10.3,30.08,WNW,298,2.0,10.0,84,0.00,,OVC020,0.00,VWS V14.01,2013-02-02 16:54:00,
2013-02-02 10:59:00,14.4,10.5,30.08,WNW,298,3.0,5.0,84,0.00,,OVC020,0.00,VWS V14.01,2013-02-02 16:59:00,
2013-02-02 11:04:00,14.3,10.1,30.08,WNW,298,1.0,9.0,83,0.00,,OVC024,0.00,VWS V14.01,2013-02-02 17:04:00,
2013-02-02 11:09:00,14.5,10.3,30.08,WNW,298,1.0,8.0,83,0.00,,OVC024,0.00,VWS V14.01,2013-02-02 17:09:00,
2013-02-02 11:14:00,14.5,10.3,30.08,WNW,298,1.0,8.0,83,0.00,,OVC024,0.00,VWS V14.01,2013-02-02 17:14:00,
2013-02-02 11:19:00,14.4,9.9,30.08,WNW,298,3.0,10.0,82,0.00,,OVC024,0.00,VWS V14.01,2013-02-02 17:19:00,
2013-02-02 11:24:00,14.5,10.0,30.08,WNW,298,9.0,12.0,82,0.00,,OVC028,0.00,VWS V14.01,2013-02-02 17:24:00,
2013-02-02 11:29:00,14.6,9.8,30.08,WNW,298,4.0,11.0,81,0.00,,OVC028,0.00,VWS V14.01,2013-02-02 17:29:00,
2013-02-02 11:34:00,14.7,9.9,30.08,WNW,298,2.0,9.0,81,0.00,,OVC028,0.00,VWS V14.01,2013-02-02 17:34:00,
2013-02-02 11:39:00,14.9,9.9,30.08,WNW,298,5.0,11.0,80,0.00,,OVC028,0.00,VWS V14.01,2013-02-02 17:39:00,
2013-02-02 11:44:00,15.0,10.0,30.08,WNW,298,5.0,7.0,80,0.00,,OVC030,0.00,VWS V14.01,2013-02-02 17:44:00,
2013-02-02 11:49:00,15.4,10.9,30.08,WNW,298,6.0,6.0,82,0.00,,OVC030,0.00,VWS V14.01,2013-02-02 17:49:00,
2013-02-02 11:54:00,15.8,11.0,30.08,WNW,298,0.0,7.0,81,0.00,,OVC030,0.00,VWS V14.01,2013-02-02 17:54:00,
2013-02-02 11:59:00,15.9,10.8,30.07,WNW,298,0.0,4.0,80,0.00,,OVC030,0.00,VWS V14.01,2013-02-02 17:59:00,
2013-02-02 12:04:00,16.2,10.8,30.07,WNW,298,1.0,4.0,79,0.00,,OVC030,0.00,VWS V14.01,2013-02-02 18:04:00,
2013-02-02 12:09:00,16.1,10.5,30.07,WNW,298,0.0,6.0,78,0.00,,OVC030,0.00,VWS V14.01,2013-02-02 18:09:00,
2013-02-02 12:14:00,16.7,11.3,30.07,WNW,298,4.0,8.0,79,0.00,,OVC030,0.00,VWS V14.01,2013-02-02 18:14:00,
2013-02-02 12:19:00,17.0,11.6,30.07,WNW,298,0.0,4.0,79,0.00,,OVC030,0.00,VWS V14.01,2013-02-02 18:19:00,
2013-02-02 12:24:00,17.1,11.1,30.07,WNW,298,3.0,6.0,77,0.00,,OVC032,0.00,VWS V14.01,2013-02-02 18:24:00,
2013-02-02 12:29:00,16.9,11.2,30.07,WNW,298,3.0,3.0,78,0.00,,OVC032,0.00,VWS V14.01,2013-02-02 18:29:00,
2013-02-02 12:34:00,16.8,11.1,30.07,WNW,298,0.0,6.0,78,0.00,,OVC032,0.00,VWS V14.01,2013-02-02 18:34:00,
2013-02-02 12:39:00,16.8,10.9,30.07,WNW,298,0.0,8.0,77,0.00,,OVC032,0.00,VWS V14.01,2013-02-02 18:39:00,
2013-02-02 12:44:00,16.6,10.4,30.07,WNW,298,4.0,7.0,76,0.00,,BKN032,0.00,VWS V14.01,2013-02-02 18:44:00,
2013-02-02 12:49:00,16.7,10.5,30.06,WNW,298,0.0,4.0,76,0.00,,BKN032,0.00,VWS V14.01,2013-02-02 18:49:00,
2013-02-02 12:54:00,16.6,9.8,30.06,WNW,298,3.0,9.0,74,0.00,,BKN032,0.00,VWS V14.01,2013-02-02 18:54:00,
2013-02-02 12:59:00,16.6,10.1,30.07,WNW,298,1.0,6.0,75,0.00,,BKN032,0.00,VWS V14.01,2013-02-02 18:59:00,
2013-02-02 13:04:00,17.1,10.6,30.07,WNW,298,4.0,11.0,75,0.00,,CLR,0.00,VWS V14.01,2013-02-02 19:04:00,
2013-02-02 13:09:00,16.7,9.9,30.07,WNW,298,0.0,9.0,74,0.00,,CLR,0.00,VWS V14.01,2013-02-02 19:09:00,
2013-02-02 13:14:00,16.3,9.8,30.07,WNW,298,0.0,4.0,75,0.00,,CLR,0.00,VWS V14.01,2013-02-02 19:14:00,
2013-02-02 13:19:00,16.5,10.0,30.07,WNW,298,0.0,10.0,75,0.00,,CLR,0.00,VWS V14.01,2013-02-02 19:19:00,
2013-02-02 13:24:00,17.1,10.9,30.07,WNW,298,0.0,6.0,76,0.00,,CLR,0.00,VWS V14.01,2013-02-02 19:24:00,
2013-02-02 13:29:00,17.6,11.0,30.07,WNW,298,1.0,3.0,75,0.00,,CLR,0.00,VWS V14.01,2013-02-02 19:29:00,
2013-02-02 13:34:00,17.9,11.3,30.07,WNW,298,0.0,3.0,75,0.00,,CLR,0.00,VWS V14.01,2013-02-02 19:34:00,
2013-02-02 13:39:00,18.3,11.7,30.07,WNW,298,2.0,4.0,75,0.00,,CLR,0.00,VWS V14.01,2013-02-02 19:39:00,
2013-02-02 13:43:00,18.1,11.2,30.08,WNW,298,2.0,6.0,74,0.00,,CLR,0.00,VWS V14.01,2013-02-02 19:43:00,
2013-02-02 13:48:00,18.2,11.0,30.07,WNW,298,1.0,4.0,73,0.00,,CLR,0.00,VWS V14.01,2013-02-02 19:48:00,
2013-02-02 13:53:00,18.5,11.3,30.08,WNW,298,2.0,7.0,73,0.00,,CLR,0.00,VWS V14.01,2013-02-02 19:53:00,
2013-02-02 13:58:00,18.6,11.4,30.07,WNW,298,1.0,8.0,73,0.00,,CLR,0.00,VWS V14.01,2013-02-02 19:58:00,
2013-02-02 14:03:00,18.2,10.4,30.08,WNW,298,1.0,8.0,71,0.00,,CLR,0.00,VWS V14.01,2013-02-02 20:03:00,
2013-02-02 14:08:00,18.1,10.6,30.07,WNW,298,5.0,7.0,72,0.00,,CLR,0.00,VWS V14.01,2013-02-02 20:08:00,
2013-02-02 14:13:00,18.3,10.8,30.07,WNW,298,1.0,5.0,72,0.00,,CLR,0.00,VWS V14.01,2013-02-02 20:13:00,
2013-02-02 14:18:00,18.3,10.8,30.07,WNW,298,1.0,4.0,72,0.00,,CLR,0.00,VWS V14.01,2013-02-02 20:18:00,
2013-02-02 14:23:00,18.6,10.8,30.07,WNW,298,2.0,7.0,71,0.00,,CLR,0.00,VWS V14.01,2013-02-02 20:23:00,
2013-02-02 14:28:00,18.4,10.3,30.08,WNW,298,0.0,7.0,70,0.00,,CLR,0.00,VWS V14.01,2013-02-02 20:28:00,
2013-02-02 14:33:00,18.4,10.6,30.08,WNW,298,2.0,5.0,71,0.00,,CLR,0.00,VWS V14.01,2013-02-02 20:33:00,
2013-02-02 14:38:00,18.4,10.6,30.08,WNW,298,0.0,4.0,71,0.00,,CLR,0.00,VWS V14.01,2013-02-02 20:38:00,
2013-02-02 14:43:00,18.4,10.6,30.08,WNW,298,4.0,4.0,71,0.00,,CLR,0.00,VWS V14.01,2013-02-02 20:43:00,
2013-02-02 14:48:00,17.9,10.1,30.08,WNW,298,1.0,4.0,71,0.00,,CLR,0.00,VWS V14.01,2013-02-02 20:48:00,
2013-02-02 14:53:00,17.9,10.4,30.08,WNW,298,0.0,2.0,72,0.00,,CLR,0.00,VWS V14.01,2013-02-02 20:53:00,
2013-02-02 14:58:00,17.6,10.1,30.08,WNW,298,1.0,4.0,72,0.00,,CLR,0.00,VWS V14.01,2013-02-02 20:58:00,
2013-02-02 15:03:00,17.3,9.8,30.08,WNW,298,0.0,4.0,72,0.00,,CLR,0.00,VWS V14.01,2013-02-02 21:03:00,
2013-02-02 15:08:00,17.3,10.1,30.08,WNW,298,1.0,4.0,73,0.00,,CLR,0.00,VWS V14.01,2013-02-02 21:08:00,
2013-02-02 15:13:00,17.5,10.3,30.08,WNW,298,0.0,7.0,73,0.00,,CLR,0.00,VWS V14.01,2013-02-02 21:13:00,
2013-02-02 15:18:00,17.4,10.2,30.08,WNW,298,0.0,5.0,73,0.00,,CLR,0.00,VWS V14.01,2013-02-02 21:18:00,
2013-02-02 15:23:00,17.4,10.2,30.08,WNW,298,2.0,6.0,73,0.00,,FEW100,0.00,VWS V14.01,2013-02-02 21:23:00,
2013-02-02 15:28:00,17.6,10.4,30.08,WNW,298,1.0,3.0,73,0.00,,FEW100,0.00,VWS V14.01,2013-02-02 21:28:00,
2013-02-02 15:33:00,17.5,10.3,30.08,WNW,298,1.0,1.0,73,0.00,,FEW100,0.00,VWS V14.01,2013-02-02 21:33:00,
2013-02-02 15:38:00,17.3,10.4,30.08,WNW,298,0.0,2.0,74,0.00,,FEW100,0.00,VWS V14.01,2013-02-02 21:38:00,
2013-02-02 15:43:00,17.3,10.4,30.08,WNW,298,0.0,3.0,74,0.00,,FEW100,0.00,VWS V14.01,2013-02-02 21:43:00,
2013-02-02 15:48:00,17.1,10.3,30.08,WNW,298,4.0,4.0,74,0.00,,FEW100,0.00,VWS V14.01,2013-02-02 21:48:00,
2013-02-02 15:53:00,16.7,9.6,30.08,WNW,298,0.0,4.0,73,0.00,,FEW100,0.00,VWS V14.01,2013-02-02 21:53:00,
2013-02-02 15:58:00,16.4,9.6,30.08,WNW,298,2.0,4.0,74,0.00,,FEW100,0.00,VWS V14.01,2013-02-02 21:58:00,
2013-02-02 16:03:00,16.2,9.4,30.08,WNW,298,0.0,4.0,74,0.00,,FEW100,0.00,VWS V14.01,2013-02-02 22:03:00,
2013-02-02 16:08:00,16.1,9.6,30.08,WNW,298,1.0,3.0,75,0.00,,FEW100,0.00,VWS V14.01,2013-02-02 22:08:00,
2013-02-02 16:13:00,16.2,10.0,30.08,WNW,298,0.0,2.0,76,0.00,,FEW100,0.00,VWS V14.01,2013-02-02 22:13:00,
2013-02-02 16:18:00,16.3,10.1,30.08,WNW,298,0.0,2.0,76,0.00,,FEW100,0.00,VWS V14.01,2013-02-02 22:18:00,
2013-02-02 16:23:00,16.3,9.8,30.08,WNW,298,0.0,2.0,75,0.00,,BKN090,0.00,VWS V14.01,2013-02-02 22:23:00,
2013-02-02 16:28:00,16.3,10.1,30.08,WNW,298,0.0,2.0,76,0.00,,BKN090,0.00,VWS V14.01,2013-02-02 22:28:00,
2013-02-02 16:33:00,16.4,10.2,30.09,WNW,298,0.0,0.0,76,0.00,,BKN090,0.00,VWS V14.01,2013-02-02 22:33:00,
2013-02-02 16:38:00,16.2,10.0,30.09,WNW,298,1.0,2.0,76,0.00,,BKN090,0.00,VWS V14.01,2013-02-02 22:38:00,
2013-02-02 16:43:00,16.1,9.9,30.09,WNW,298,1.0,2.0,76,0.00,,OVC090,0.00,VWS V14.01,2013-02-02 22:43:00,
2013-02-02 16:48:00,16.1,9.9,30.09,WNW,298,0.0,2.0,76,0.00,,OVC090,0.00,VWS V14.01,2013-02-02 22:48:00,
2013-02-02 16:53:00,16.1,9.9,30.09,WNW,298,0.0,4.0,76,0.00,,OVC090,0.00,VWS V14.01,2013-02-02 22:53:00,
2013-02-02 16:58:00,15.9,9.4,30.09,WNW,298,0.0,4.0,75,0.00,,OVC090,0.00,VWS V14.01,2013-02-02 22:58:00,
2013-02-02 17:03:00,15.8,9.6,30.09,WNW,298,0.0,4.0,76,0.00,,OVC090,0.00,VWS V14.01,2013-02-02 23:03:00,
2013-02-02 17:08:00,15.8,9.6,30.09,WNW,298,0.0,1.0,76,0.00,,OVC090,0.00,VWS V14.01,2013-02-02 23:08:00,
2013-02-02 17:13:00,15.7,9.5,30.09,WNW,298,0.0,0.0,76,0.00,,OVC090,0.00,VWS V14.01,2013-02-02 23:13:00,
2013-02-02 17:18:00,15.5,9.3,30.09,WNW,298,1.0,1.0,76,0.00,,OVC090,0.00,VWS V14.01,2013-02-02 23:18:00,
2013-02-02 17:23:00,15.5,9.6,30.10,WNW,298,0.0,0.0,77,0.00,,OVC090,0.00,VWS V14.01,2013-02-02 23:23:00,
2013-02-02 17:28:00,15.3,9.4,30.10,WNW,298,0.0,3.0,77,0.00,,OVC090,0.00,VWS V14.01,2013-02-02 23:28:00,
2013-02-02 17:33:00,15.2,9.3,30.10,WNW,298,2.0,5.0,77,0.00,,OVC090,0.00,VWS V14.01,2013-02-02 23:33:00,
2013-02-02 17:38:00,15.0,9.1,30.10,WNW,298,0.0,4.0,77,0.00,,OVC090,0.00,VWS V14.01,2013-02-02 23:38:00,
2013-02-02 17:43:00,14.8,8.9,30.09,WNW,298,0.0,4.0,77,0.00,,OVC100,0.00,VWS V14.01,2013-02-02 23:43:00,
2013-02-02 17:48:00,14.7,9.1,30.10,WNW,298,1.0,5.0,78,0.00,,OVC100,0.00,VWS V14.01,2013-02-02 23:48:00,
2013-02-02 17:53:00,14.6,9.0,30.09,WNW,298,1.0,1.0,78,0.00,,OVC100,0.00,VWS V14.01,2013-02-02 23:53:00,
2013-02-02 17:58:00,14.5,8.9,30.09,WNW,298,1.0,4.0,78,0.00,,OVC100,0.00,VWS V14.01,2013-02-02 23:58:00,
2013-02-02 18:03:00,14.4,8.8,30.09,WNW,298,1.0,2.0,78,0.00,,OVC100,0.00,VWS V14.01,2013-02-03 00:03:00,
2013-02-02 18:08:00,14.4,8.8,30.09,WNW,298,0.0,2.0,78,0.00,,OVC100,0.00,VWS V14.01,2013-02-03 00:08:00,
2013-02-02 18:13:00,14.2,8.3,30.09,WNW,298,0.0,2.0,77,0.00,,OVC100,0.00,VWS V14.01,2013-02-03 00:13:00,
2013-02-02 18:18:00,14.1,8.2,30.10,WNW,298,0.0,0.0,77,0.00,,OVC100,0.00,VWS V14.01,2013-02-03 00:18:00,
2013-02-02 18:23:00,14.1,8.5,30.10,WNW,298,0.0,2.0,78,0.00,,BKN090,0.00,VWS V14.01,2013-02-03 00:23:00,
2013-02-02 18:28:00,14.0,8.4,30.10,WNW,298,0.0,3.0,78,0.00,,BKN090,0.00,VWS V14.01,2013-02-03 00:28:00,
2013-02-02 18:33:00,14.0,8.7,30.09,WNW,298,2.0,3.0,79,0.00,,BKN090,0.00,VWS V14.01,2013-02-03 00:33:00,
2013-02-02 18:38:00,14.0,8.7,30.09,WNW,298,1.0,2.0,79,0.00,,BKN090,0.00,VWS V14.01,2013-02-03 00:38:00,
2013-02-02 18:43:00,13.8,8.5,30.09,WNW,298,0.0,4.0,79,0.00,,OVC090,0.00,VWS V14.01,2013-02-03 00:43:00,
2013-02-02 18:48:00,13.7,8.4,30.09,WNW,298,4.0,4.0,79,0.00,,OVC090,0.00,VWS V14.01,2013-02-03 00:48:00,
2013-02-02 18:53:00,13.6,8.0,30.09,WNW,298,0.0,0.0,78,0.00,,OVC090,0.00,VWS V14.01,2013-02-03 00:53:00,
2013-02-02 18:58:00,13.6,8.3,30.09,WNW,298,2.0,4.0,79,0.00,,OVC090,0.00,VWS V14.01,2013-02-03 00:58:00,
2013-02-02 19:03:00,13.5,7.9,30.09,WNW,298,0.0,3.0,78,0.00,,BKN090,0.00,VWS V14.01,2013-02-03 01:03:00,
2013-02-02 19:08:00,13.5,8.2,30.09,WNW,298,0.0,0.0,79,0.00,,BKN090,0.00,VWS V14.01,2013-02-03 01:08:00,
2013-02-02 19:13:00,13.5,8.2,30.10,WNW,298,0.0,2.0,79,0.00,,BKN090,0.00,VWS V14.01,2013-02-03 01:13:00,
2013-02-02 19:18:00,13.5,8.2,30.09,WNW,298,0.0,1.0,79,0.00,,BKN090,0.00,VWS V14.01,2013-02-03 01:18:00,
2013-02-02 19:22:00,13.5,8.2,30.09,WNW,298,0.0,1.0,79,0.00,,OVC075,0.00,VWS V14.01,2013-02-03 01:22:00,
2013-02-02 19:27:00,13.5,8.2,30.09,WNW,298,0.0,0.0,79,0.00,,OVC075,0.00,VWS V14.01,2013-02-03 01:27:00,
2013-02-02 19:32:00,13.4,8.1,30.08,WNW,298,0.0,2.0,79,0.00,,OVC075,0.00,VWS V14.01,2013-02-03 01:32:00,
2013-02-02 19:37:00,13.4,8.1,30.08,WNW,298,0.0,2.0,79,0.00,,OVC075,0.00,VWS V14.01,2013-02-03 01:37:00,
2013-02-02 19:42:00,13.4,8.1,30.08,WNW,298,0.0,3.0,79,0.00,,OVC075,0.00,VWS V14.01,2013-02-03 01:42:00,
2013-02-02 19:47:00,13.4,8.1,30.08,WNW,298,0.0,1.0,79,0.00,,OVC075,0.00,VWS V14.01,2013-02-03 01:47:00,
2013-02-02 19:52:00,13.4,7.8,30.09,WNW,298,0.0,1.0,78,0.00,,OVC075,0.00,VWS V14.01,2013-02-03 01:52:00,
2013-02-02 19:57:00,13.2,7.6,30.09,WNW,298,1.0,2.0,78,0.00,,OVC075,0.00,VWS V14.01,2013-02-03 01:57:00,
2013-02-02 20:02:00,13.0,7.4,30.09,WNW,298,0.0,0.0,78,0.00,,OVC070,0.00,VWS V14.01,2013-02-03 02:02:00,
2013-02-02 20:07:00,12.8,7.2,30.09,WNW,298,0.0,0.0,78,0.00,,OVC070,0.00,VWS V14.01,2013-02-03 02:07:00,
2013-02-02 20:12:00,12.7,7.2,30.09,WNW,298,0.0,0.0,78,0.00,,OVC070,0.00,VWS V14.01,2013-02-03 02:12:00,
2013-02-02 20:17:00,12.5,7.0,30.08,WNW,298,0.0,0.0,78,0.00,,OVC070,0.00,VWS V14.01,2013-02-03 02:17:00,
2013-02-02 20:22:00,12.1,6.8,30.08,WNW,298,0.0,0.0,79,0.00,,FEW070,0.00,VWS V14.01,2013-02-03 02:22:00,
2013-02-02 20:27:00,12.1,6.8,30.08,WNW,298,0.0,0.0,79,0.00,,FEW070,0.00,VWS V14.01,2013-02-03 02:27:00,
2013-02-02 20:32:00,11.8,6.6,30.07,WNW,298,0.0,0.0,79,0.00,,FEW070,0.00,VWS V14.01,2013-02-03 02:32:00,
2013-02-02 20:37:00,11.4,6.2,30.07,WNW,298,0.0,0.0,79,0.00,,FEW070,0.00,VWS V14.01,2013-02-03 02:37:00,
2013-02-02 20:42:00,11.2,6.0,30.07,WNW,298,0.0,0.0,79,0.00,,CLR,0.00,VWS V14.01,2013-02-03 02:42:00,
2013-02-02 20:47:00,10.8,5.9,30.06,WNW,298,0.0,0.0,80,0.00,,CLR,0.00,VWS V14.01,2013-02-03 02:47:00,
2013-02-02 20:52:00,10.6,5.7,30.06,WNW,298,0.0,0.0,80,0.00,,CLR,0.00,VWS V14.01,2013-02-03 02:52:00,
2013-02-02 20:57:00,10.5,5.8,30.06,WNW,298,0.0,0.0,81,0.00,,CLR,0.00,VWS V14.01,2013-02-03 02:57:00,
2013-02-02 21:02:00,10.4,5.7,30.06,WNW,298,0.0,0.0,81,0.00,,CLR,0.00,VWS V14.01,2013-02-03 03:02:00,
2013-02-02 21:07:00,10.1,5.4,30.05,WNW,298,0.0,0.0,81,0.00,,CLR,0.00,VWS V14.01,2013-02-03 03:07:00,
2013-02-02 21:12:00,10.0,5.6,30.05,WNW,298,0.0,0.0,82,0.00,,CLR,0.00,VWS V14.01,2013-02-03 03:12:00,
2013-02-02 21:17:00,10.1,6.0,30.04,WNW,298,0.0,4.0,83,0.00,,CLR,0.00,VWS V14.01,2013-02-03 03:17:00,
2013-02-02 21:22:00,10.3,6.2,30.06,WNW,298,0.0,0.0,83,0.00,,FEW095,0.00,VWS V14.01,2013-02-03 03:22:00,
2013-02-02 21:27:00,10.4,6.3,30.06,WNW,298,0.0,0.0,83,0.00,,FEW095,0.00,VWS V14.01,2013-02-03 03:27:00,
2013-02-02 21:32:00,10.7,6.8,30.06,WNW,298,0.0,0.0,84,0.00,,FEW095,0.00,VWS V14.01,2013-02-03 03:32:00,
2013-02-02 21:37:00,10.9,7.0,30.06,WNW,298,0.0,0.0,84,0.00,,FEW095,0.00,VWS V14.01,2013-02-03 03:37:00,
2013-02-02 21:42:00,11.2,7.3,30.06,WNW,298,0.0,0.0,84,0.00,,BKN085,0.00,VWS V14.01,2013-02-03 03:42:00,
2013-02-02 21:47:00,11.3,7.4,30.05,WNW,298,0.0,0.0,84,0.00,,BKN085,0.00,VWS V14.01,2013-02-03 03:47:00,
2013-02-02 21:52:00,11.5,7.6,30.05,WNW,298,0.0,1.0,84,0.00,,BKN085,0.00,VWS V14.01,2013-02-03 03:52:00,
2013-02-02 21:57:00,11.6,7.7,30.05,WNW,298,0.0,0.0,84,0.00,,BKN085,0.00,VWS V14.01,2013-02-03 03:57:00,
2013-02-02 22:02:00,11.8,7.9,30.04,WNW,298,0.0,1.0,84,0.00,,OVC070,0.00,VWS V14.01,2013-02-03 04:02:00,
2013-02-02 22:07:00,12.0,8.1,30.05,WNW,298,0.0,0.0,84,0.00,,OVC070,0.00,VWS V14.01,2013-02-03 04:07:00,
2013-02-02 22:12:00,12.1,7.9,30.05,WNW,298,0.0,0.0,83,0.00,,OVC070,0.00,VWS V14.01,2013-02-03 04:12:00,
2013-02-02 22:17:00,12.2,10.3,30.04,WNW,298,3.0,3.0,92,0.00,,OVC070,0.00,VWS V14.01,2013-02-03 04:17:00,
2013-02-02 22:22:00,12.3,8.1,30.04,WNW,298,1.0,2.0,83,0.00,,OVC070,0.00,VWS V14.01,2013-02-03 04:22:00,
2013-02-02 22:27:00,12.5,8.1,30.03,WNW,298,0.0,1.0,82,0.00,,OVC070,0.00,VWS V14.01,2013-02-03 04:27:00,
2013-02-02 22:32:00,12.5,8.1,30.04,WNW,298,0.0,2.0,82,0.00,,OVC070,0.00,VWS V14.01,2013-02-03 04:32:00,
2013-02-02 22:37:00,12.6,8.2,30.04,WNW,298,0.0,0.0,82,0.00,,OVC070,0.00,VWS V14.01,2013-02-03 04:37:00,
2013-02-02 22:42:00,12.7,8.3,30.03,WNW,298,1.0,3.0,82,0.00,,OVC060,0.00,VWS V14.01,2013-02-03 04:42:00,
2013-02-02 22:47:00,12.7,8.3,30.04,WNW,298,0.0,0.0,82,0.00,,OVC060,0.00,VWS V14.01,2013-02-03 04:47:00,
2013-02-02 22:52:00,12.8,8.4,30.04,WNW,298,0.0,2.0,82,0.00,,OVC060,0.00,VWS V14.01,2013-02-03 04:52:00,
2013-02-02 22:57:00,12.9,8.4,30.03,WNW,298,2.0,4.0,82,0.00,,OVC060,0.00,VWS V14.01,2013-02-03 04:57:00,
2013-02-02 23:00:00,13.0,8.6,30.03,WNW,298,1.0,4.0,82,0.00,,OVC060,0.00,VWS V14.01,2013-02-03 05:00:00,
2013-02-02 23:01:00,13.0,8.6,30.03,WNW,298,0.0,1.0,82,0.00,,BKN065,0.00,VWS V14.01,2013-02-03 05:01:00,
2013-02-02 23:06:00,13.0,8.6,30.03,WNW,298,0.0,1.0,82,0.00,,BKN065,0.00,VWS V14.01,2013-02-03 05:06:00,
2013-02-02 23:11:00,13.1,8.6,30.02,WNW,298,2.0,4.0,82,0.00,,BKN065,0.00,VWS V14.01,2013-02-03 05:11:00,
2013-02-02 23:16:00,13.2,8.8,30.02,WNW,298,3.0,4.0,82,0.00,,BKN065,0.00,VWS V14.01,2013-02-03 05:16:00,
2013-02-02 23:21:00,13.3,8.8,30.02,WNW,298,0.0,3.0,82,0.00,,BKN050,0.00,VWS V14.01,2013-02-03 05:21:00,
2013-02-02 23:26:00,13.4,9.2,30.01,WNW,298,4.0,4.0,83,0.00,,BKN050,0.00,VWS V14.01,2013-02-03 05:26:00,
2013-02-02 23:31:00,13.4,9.2,30.01,WNW,298,3.0,5.0,83,0.00,,BKN050,0.00,VWS V14.01,2013-02-03 05:31:00,
2013-02-02 23:36:00,13.3,9.4,30.02,WNW,298,1.0,3.0,84,0.00,,BKN050,0.00,VWS V14.01,2013-02-03 05:36:00,
2013-02-02 23:41:00,13.3,9.4,30.02,WNW,298,2.0,4.0,84,0.00,,OVC037,0.00,VWS V14.01,2013-02-03 05:41:00,
2013-02-02 23:46:00,13.3,9.4,30.01,WNW,298,3.0,3.0,84,0.00,,OVC037,0.00,VWS V14.01,2013-02-03 05:46:00,
2013-02-02 23:51:00,13.2,9.3,30.01,WNW,298,4.0,4.0,84,0.00,,OVC037,0.00,VWS V14.01,2013-02-03 05:51:00,
2013-02-02 23:56:00,13.3,9.6,30.01,WNW,298,4.0,4.0,85,0.00,,OVC037,0.00,VWS V14.01,2013-02-03 05:56:00,